Time;durP1;ratioP1;P1;durP2;ratioP2;P2;SDS_P1;SDS_P2;PMS_P1;PMS_P2;Temp;Humidity;BMP_temperature;BMP_pressure;BME280_temperature;BME280_humidity;BME280_pressure;Samples;Min_cycle;Max_cycle;Signal;HPM_P1;HPM_P2
2022/05/02 00:00:14;;;;;;;11.77;8.80;;;;;;;;;;5017957;28;94206;-77
2022/05/02 00:02:40;;;;;;;9.75;8.68;;;;;;;;;;5014690;28;92866;-77
2022/05/02 00:05:07;;;;;;;10.77;8.90;;;;;;;;;;5015392;28;94279;-77
2022/05/02 00:07:34;;;;;;;10.65;8.60;;;;;;;;;;5015237;28;92629;-77
2022/05/02 00:10:01;;;;;;;10.15;8.23;;;;;;;;;;5014533;28;94246;-77
2022/05/02 00:12:27;;;;;;;9.07;8.18;;;;;;;;;;5020880;27;94267;-77
2022/05/02 00:14:53;;;;;;;9.65;8.70;;;;;;;;;;5018531;28;92476;-77
2022/05/02 00:17:56;;;;;;;11.98;8.63;;;;;;;;;;5034169;28;94813;-77
2022/05/02 00:20:06;;;;;;;9.55;8.65;;;;;;;;;;5032075;28;94228;-77
2022/05/02 00:22:33;;;;;;;9.13;8.30;;;;;;;;;;5018001;28;93952;-77
2022/05/02 00:24:59;;;;;;;9.35;7.82;;;;;;;;;;5035471;28;94179;-76
2022/05/02 00:27:30;;;;;;;11.23;8.75;;;;;;;;;;5035161;28;92603;-77
2022/05/02 00:29:56;;;;;;;13.20;9.00;;;;;;;;;;5034895;28;92993;-77
2022/05/02 00:32:22;;;;;;;13.00;8.38;;;;;;;;;;5033890;28;93957;-77
2022/05/02 00:34:49;;;;;;;9.70;8.80;;;;;;;;;;5035963;28;91830;-77
2022/05/02 00:37:17;;;;;;;9.65;8.65;;;;;;;;;;5018568;28;93711;-77
2022/05/02 00:39:43;;;;;;;11.60;8.60;;;;;;;;;;5014136;28;92602;-77
2022/05/02 00:42:10;;;;;;;11.27;9.38;;;;;;;;;;5015795;28;94834;-77
2022/05/02 00:44:40;;;;;;;11.88;9.10;;;;;;;;;;5014004;28;94134;-76
2022/05/02 00:47:06;;;;;;;9.73;8.65;;;;;;;;;;5019542;28;92540;-77
2022/05/02 00:49:32;;;;;;;9.80;8.75;;;;;;;;;;5014515;28;96097;-76
2022/05/02 00:51:59;;;;;;;10.05;8.82;;;;;;;;;;5013740;28;94375;-77
2022/05/02 00:54:25;;;;;;;10.73;8.07;;;;;;;;;;5014705;28;93172;-77
2022/05/02 00:56:52;;;;;;;9.80;8.90;;;;;;;;;;5014954;28;93846;-77
2022/05/02 00:59:20;;;;;;;10.35;9.27;;;;;;;;;;5014680;28;93323;-77
2022/05/02 01:01:46;;;;;;;9.55;8.23;;;;;;;;;;5015348;28;92478;-77
2022/05/02 01:04:13;;;;;;;10.10;9.10;;;;;;;;;;5016964;28;93822;-76
2022/05/02 01:09:25;;;;;;;13.70;8.68;;;;;;;;;;5018462;28;96490;-77
2022/05/02 01:11:51;;;;;;;11.35;8.85;;;;;;;;;;5021499;28;94325;-76
2022/05/02 01:14:18;;;;;;;11.07;9.20;;;;;;;;;;5034756;28;92505;-76
2022/05/02 01:16:44;;;;;;;10.43;9.00;;;;;;;;;;5019535;28;94732;-76
2022/05/02 01:19:10;;;;;;;16.17;9.40;;;;;;;;;;5013605;28;93907;-77
2022/05/02 01:21:38;;;;;;;12.40;9.90;;;;;;;;;;5018867;28;92558;-77
2022/05/02 01:24:05;;;;;;;10.95;9.85;;;;;;;;;;5028853;28;93916;-76
2022/05/02 01:26:31;;;;;;;10.18;9.25;;;;;;;;;;5020571;28;94126;-75
2022/05/02 01:28:58;;;;;;;9.85;8.85;;;;;;;;;;5034443;28;94132;-76
2022/05/02 01:31:25;;;;;;;10.10;9.20;;;;;;;;;;5032241;28;96536;-77
2022/05/02 01:33:51;;;;;;;9.82;9.02;;;;;;;;;;5033708;28;92560;-77
2022/05/02 01:36:20;;;;;;;9.55;8.73;;;;;;;;;;5032186;28;92504;-77
2022/05/02 01:38:46;;;;;;;10.00;9.10;;;;;;;;;;5033809;28;93063;-77
2022/05/02 01:41:13;;;;;;;10.77;9.65;;;;;;;;;;5015222;28;92501;-76
2022/05/02 01:43:40;;;;;;;10.70;8.73;;;;;;;;;;5013729;28;92875;-77
2022/05/02 01:46:07;;;;;;;11.70;9.55;;;;;;;;;;5013171;28;94477;-77
2022/05/02 01:48:34;;;;;;;12.10;8.88;;;;;;;;;;5016492;28;91770;-76
2022/05/02 01:51:00;;;;;;;9.68;8.77;;;;;;;;;;5013798;28;93215;-77
2022/05/02 01:53:27;;;;;;;10.98;9.88;;;;;;;;;;5012995;28;92543;-76
2022/05/02 01:55:53;;;;;;;10.40;9.35;;;;;;;;;;5012014;28;97169;-76
2022/05/02 01:58:20;;;;;;;10.73;9.80;;;;;;;;;;5013277;28;92428;-76
2022/05/02 02:00:46;;;;;;;9.95;9.05;;;;;;;;;;4995427;28;92549;-77
2022/05/02 02:03:13;;;;;;;11.02;10.02;;;;;;;;;;5013403;28;92553;-77
2022/05/02 02:05:48;;;;;;;11.05;9.75;;;;;;;;;;5012655;28;94340;-77
2022/05/02 02:08:16;;;;;;;12.68;9.88;;;;;;;;;;5013170;28;92991;-76
2022/05/02 02:10:42;;;;;;;10.15;9.15;;;;;;;;;;5015539;28;95977;-76
2022/05/02 02:13:09;;;;;;;11.35;9.85;;;;;;;;;;5013842;28;92862;-77
2022/05/02 02:15:35;;;;;;;11.65;9.82;;;;;;;;;;5013082;28;93602;-76
2022/05/02 02:18:02;;;;;;;10.30;9.38;;;;;;;;;;5013374;28;94269;-76
2022/05/02 02:20:28;;;;;;;12.73;10.07;;;;;;;;;;5011290;28;94961;-78
2022/05/02 02:22:55;;;;;;;11.07;9.75;;;;;;;;;;5011418;28;95754;-75
2022/05/02 02:25:22;;;;;;;12.05;10.73;;;;;;;;;;5012770;28;94050;-76
2022/05/02 02:27:48;;;;;;;15.07;10.55;;;;;;;;;;5012555;28;92426;-76
2022/05/02 02:30:16;;;;;;;12.27;11.18;;;;;;;;;;5014478;28;93911;-76
2022/05/02 02:32:43;;;;;;;12.52;10.80;;;;;;;;;;5012259;28;93001;-75
2022/05/02 02:35:09;;;;;;;11.30;9.95;;;;;;;;;;5012601;28;94633;-75
2022/05/02 02:37:35;;;;;;;15.27;10.02;;;;;;;;;;5013064;28;93565;-76
2022/05/02 02:40:02;;;;;;;9.95;9.13;;;;;;;;;;5011981;28;94078;-75
2022/05/02 02:42:28;;;;;;;14.45;10.30;;;;;;;;;;5013157;28;93878;-76
2022/05/02 02:44:55;;;;;;;11.68;10.60;;;;;;;;;;5009095;28;95564;-76
2022/05/02 02:47:21;;;;;;;12.35;10.13;;;;;;;;;;5012409;28;92523;-75
2022/05/02 02:49:47;;;;;;;11.50;10.60;;;;;;;;;;5011590;28;93008;-75
2022/05/02 02:52:14;;;;;;;12.23;10.80;;;;;;;;;;5015161;28;93596;-76
2022/05/02 02:54:40;;;;;;;12.73;11.50;;;;;;;;;;5012143;28;93047;-76
2022/05/02 02:57:06;;;;;;;13.25;10.85;;;;;;;;;;5011656;28;94158;-76
2022/05/02 02:59:33;;;;;;;13.63;12.07;;;;;;;;;;5010783;28;92580;-75
2022/05/02 03:01:59;;;;;;;12.25;11.00;;;;;;;;;;5015379;28;93783;-75
2022/05/02 03:07:25;;;;;;;16.30;11.88;;;;;;;;;;4987938;28;92691;-75
2022/05/02 03:09:52;;;;;;;12.52;11.23;;;;;;;;;;5028485;28;94975;-75
2022/05/02 03:12:19;;;;;;;13.82;11.02;;;;;;;;;;5031307;28;94249;-75
2022/05/02 03:14:45;;;;;;;12.65;11.45;;;;;;;;;;5035274;28;92433;-75
2022/05/02 03:17:12;;;;;;;12.05;11.05;;;;;;;;;;5016878;28;94287;-75
2022/05/02 03:19:39;;;;;;;12.60;11.32;;;;;;;;;;5011822;28;92459;-75
2022/05/02 03:22:05;;;;;;;12.70;10.90;;;;;;;;;;5012245;28;94072;-75
2022/05/02 03:24:32;;;;;;;14.68;11.18;;;;;;;;;;5011528;28;93422;-75
2022/05/02 03:26:58;;;;;;;13.18;11.88;;;;;;;;;;5012303;28;91780;-75
2022/05/02 03:29:25;;;;;;;12.45;11.30;;;;;;;;;;5019058;27;93315;-75
2022/05/02 03:31:51;;;;;;;14.48;11.43;;;;;;;;;;5026847;28;93492;-75
2022/05/02 03:34:17;;;;;;;17.20;11.38;;;;;;;;;;5009804;28;95382;-76
2022/05/02 03:36:44;;;;;;;12.80;11.50;;;;;;;;;;5017773;28;95729;-75
2022/05/02 03:39:10;;;;;;;14.05;10.40;;;;;;;;;;5014448;28;92905;-75
2022/05/02 03:41:36;;;;;;;15.77;12.10;;;;;;;;;;5015153;28;94394;-76
2022/05/02 03:44:03;;;;;;;13.02;11.75;;;;;;;;;;5015151;28;94113;-76
2022/05/02 03:46:29;;;;;;;13.15;11.77;;;;;;;;;;5013957;28;92498;-76
2022/05/02 03:48:56;;;;;;;12.75;11.40;;;;;;;;;;5015150;28;93074;-76
2022/05/02 03:51:22;;;;;;;14.82;10.43;;;;;;;;;;5014981;28;92664;-76
2022/05/02 03:53:48;;;;;;;11.55;10.43;;;;;;;;;;5014103;28;92555;-76
2022/05/02 03:56:15;;;;;;;16.13;11.45;;;;;;;;;;5015102;28;93979;-76
2022/05/02 03:58:41;;;;;;;12.73;11.10;;;;;;;;;;5015604;28;96535;-76
2022/05/02 04:01:08;;;;;;;12.73;11.52;;;;;;;;;;5013951;28;95487;-76
2022/05/02 04:03:34;;;;;;;13.23;11.93;;;;;;;;;;5014199;28;94405;-76
2022/05/02 04:06:00;;;;;;;14.13;11.35;;;;;;;;;;5015029;28;93250;-76
2022/05/02 04:08:27;;;;;;;14.15;11.20;;;;;;;;;;5013938;28;94497;-76
2022/05/02 04:10:53;;;;;;;12.80;11.60;;;;;;;;;;5014393;28;93403;-76
2022/05/02 04:13:20;;;;;;;12.63;11.43;;;;;;;;;;5014394;27;92507;-76
2022/05/02 04:15:46;;;;;;;14.60;12.23;;;;;;;;;;5014685;28;93883;-76
2022/05/02 04:18:12;;;;;;;16.60;12.70;;;;;;;;;;5014441;28;94734;-76
2022/05/02 04:20:39;;;;;;;13.27;11.75;;;;;;;;;;5015607;28;94111;-76
2022/05/02 04:23:05;;;;;;;18.50;12.90;;;;;;;;;;5012176;28;96454;-75
2022/05/02 04:25:31;;;;;;;14.70;11.95;;;;;;;;;;5014371;28;92575;-75
2022/05/02 04:27:58;;;;;;;13.25;11.85;;;;;;;;;;5014193;28;92997;-75
2022/05/02 04:30:24;;;;;;;13.70;12.13;;;;;;;;;;5013510;28;94107;-76
2022/05/02 04:32:51;;;;;;;14.95;12.88;;;;;;;;;;5014074;28;92547;-76
2022/05/02 04:35:17;;;;;;;13.02;11.70;;;;;;;;;;5013172;28;93261;-76
2022/05/02 04:37:44;;;;;;;14.38;12.88;;;;;;;;;;5013362;28;94433;-76
2022/05/02 04:40:10;;;;;;;13.60;12.23;;;;;;;;;;5017235;28;91826;-76
2022/05/02 04:42:37;;;;;;;16.13;12.70;;;;;;;;;;5012676;28;94462;-76
2022/05/02 04:45:04;;;;;;;13.88;11.75;;;;;;;;;;5014423;28;92477;-76
2022/05/02 04:47:31;;;;;;;13.45;12.10;;;;;;;;;;5012183;28;94834;-76
2022/05/02 04:50:02;;;;;;;17.85;12.25;;;;;;;;;;5013196;28;94081;-75
2022/05/02 04:52:28;;;;;;;15.25;12.85;;;;;;;;;;5011773;28;92699;-75
2022/05/02 04:54:55;;;;;;;14.70;13.13;;;;;;;;;;5014977;28;93925;-75
2022/05/02 04:57:21;;;;;;;13.85;12.55;;;;;;;;;;5012952;28;94226;-76
2022/05/02 04:59:47;;;;;;;14.90;12.35;;;;;;;;;;5013619;28;92544;-76
2022/05/02 05:02:14;;;;;;;12.73;11.45;;;;;;;;;;5017204;28;94000;-76
2022/05/02 05:04:40;;;;;;;13.38;12.07;;;;;;;;;;5013748;28;92228;-75
2022/05/02 05:07:07;;;;;;;13.80;12.30;;;;;;;;;;5014338;28;93732;-75
2022/05/02 05:09:33;;;;;;;13.05;11.85;;;;;;;;;;5013059;28;94740;-75
2022/05/02 05:12:07;;;;;;;13.48;12.07;;;;;;;;;;5011408;28;94867;-77
2022/05/02 05:17:38;;;;;;;16.98;12.65;;;;;;;;;;5012772;28;94191;-77
2022/05/02 05:20:23;;;;;;;13.50;12.25;;;;;;;;;;5013425;28;92565;-76
2022/05/02 05:22:52;;;;;;;15.88;12.50;;;;;;;;;;5013766;28;92982;-75
2022/05/02 05:25:37;;;;;;;18.25;13.48;;;;;;;;;;5016988;28;93589;-76
2022/05/02 05:28:21;;;;;;;14.40;12.90;;;;;;;;;;5035628;27;94079;-77
2022/05/02 05:30:48;;;;;;;19.42;12.70;;;;;;;;;;5054024;27;93425;-75
2022/05/02 05:33:34;;;;;;;17.90;12.73;;;;;;;;;;5033119;28;92513;-76
2022/05/02 05:36:14;;;;;;;14.23;12.88;;;;;;;;;;5013497;28;93993;-76
2022/05/02 05:38:52;;;;;;;15.40;12.20;;;;;;;;;;5014240;28;96592;-77
2022/05/02 05:41:25;;;;;;;15.25;12.18;;;;;;;;;;5016138;28;94812;-76
2022/05/02 05:43:58;;;;;;;13.00;11.65;;;;;;;;;;5021181;28;93168;-74
2022/05/02 05:46:43;;;;;;;47.58;13.90;;;;;;;;;;5014637;28;94646;-74
2022/05/02 05:49:28;;;;;;;14.55;13.05;;;;;;;;;;5017934;28;93021;-76
2022/05/02 05:52:10;;;;;;;11.27;9.82;;;;;;;;;;5019341;27;94440;-70
2022/05/02 05:54:45;;;;;;;22.10;11.15;;;;;;;;;;5037230;27;93435;-72
2022/05/02 05:57:23;;;;;;;15.75;12.43;;;;;;;;;;5019938;27;93003;-72
2022/05/02 06:00:02;;;;;;;14.48;13.00;;;;;;;;;;5052707;27;94420;-72
2022/05/02 06:02:30;;;;;;;13.52;12.20;;;;;;;;;;5033717;27;92445;-73
2022/05/02 06:04:57;;;;;;;12.85;11.55;;;;;;;;;;5024846;28;95082;-73
2022/05/02 06:07:27;;;;;;;13.27;11.77;;;;;;;;;;5017147;28;94103;-73
2022/05/02 06:09:56;;;;;;;15.48;11.52;;;;;;;;;;5033008;28;92465;-73
2022/05/02 06:12:23;;;;;;;16.15;11.45;;;;;;;;;;5019661;28;93043;-73
2022/05/02 06:20:23;;;;;;;11.50;9.57;;;;;;;;;;5013882;28;93172;-73
2022/05/02 06:22:50;;;;;;;9.45;8.45;;;;;;;;;;5015068;27;94914;-73
2022/05/02 06:25:18;;;;;;;15.77;11.75;;;;;;;;;;5015730;28;93336;-74
2022/05/02 06:27:46;;;;;;;11.52;8.68;;;;;;;;;;5011188;28;94258;-72
2022/05/02 06:30:13;;;;;;;17.08;11.45;;;;;;;;;;5011247;28;94934;-74
2022/05/02 06:32:42;;;;;;;22.73;11.40;;;;;;;;;;5014308;28;95401;-74
2022/05/02 06:35:08;;;;;;;13.90;12.10;;;;;;;;;;5012160;28;92507;-74
2022/05/02 06:37:35;;;;;;;13.35;12.02;;;;;;;;;;5012375;28;94252;-75
2022/05/02 06:40:07;;;;;;;19.52;11.70;;;;;;;;;;5012611;28;94517;-74
2022/05/02 06:42:34;;;;;;;;;;;;;;;;;;5025102;27;92444;-75
2022/05/02 06:45:06;;;;;;;16.95;12.02;;;;;;;;;;5054026;27;121582;-75
2022/05/02 06:47:35;;;;;;;21.02;12.82;;;;;;;;;;5052853;27;92845;-75
2022/05/02 06:50:04;;;;;;;20.23;12.98;;;;;;;;;;5052185;27;92937;-75
2022/05/02 06:52:39;;;;;;;15.07;12.45;;;;;;;;;;5052503;27;93858;-75
2022/05/02 06:55:11;;;;;;;14.30;12.80;;;;;;;;;;5053679;27;95148;-75
2022/05/02 06:57:56;;;;;;;21.00;12.23;;;;;;;;;;5051555;27;96621;-75
2022/05/02 07:00:22;;;;;;;18.52;12.25;;;;;;;;;;5052095;27;93936;-75
2022/05/02 07:02:54;;;;;;;16.23;10.52;;;;;;;;;;5051454;27;92568;-76
2022/05/02 07:05:21;;;;;;;19.88;11.65;;;;;;;;;;5046889;27;93048;-76
2022/05/02 07:08:00;;;;;;;16.38;10.20;;;;;;;;;;5024384;27;93669;-76
2022/05/02 07:10:32;;;;;;;15.82;10.25;;;;;;;;;;5013239;28;92508;-76
2022/05/02 07:12:59;;;;;;;;;;;;;;;;;;5016416;28;94025;-76
2022/05/02 07:15:37;;;;;;;11.95;9.48;;;;;;;;;;5016455;28;124137;-76
2022/05/02 07:18:08;;;;;;;11.05;9.35;;;;;;;;;;5018220;28;92561;-76
2022/05/02 07:20:40;;;;;;;10.40;8.82;;;;;;;;;;5013359;28;96475;-77
2022/05/02 07:23:06;;;;;;;;;;;;;;;;;;5016784;28;92539;-77
2022/05/02 07:25:35;;;;;;;10.00;8.95;;;;;;;;;;5015318;27;123041;-77
2022/05/02 07:28:09;;;;;;;11.93;8.88;;;;;;;;;;5036221;28;94229;-77
2022/05/02 07:30:36;;;;;;;18.30;9.85;;;;;;;;;;5035932;28;92485;-77
2022/05/02 07:33:03;;;;;;;13.32;9.40;;;;;;;;;;5035515;28;93846;-77
2022/05/02 07:35:30;;;;;;;9.57;8.73;;;;;;;;;;5033339;28;94376;-77
2022/05/02 07:37:57;;;;;;;10.43;8.85;;;;;;;;;;5020133;28;91761;-79
2022/05/02 07:40:24;;;;;;;15.07;9.10;;;;;;;;;;5000674;28;93569;-76
2022/05/02 07:42:54;;;;;;;14.77;8.63;;;;;;;;;;5032456;27;92947;-77
2022/05/02 07:45:27;;;;;;;10.27;9.27;;;;;;;;;;5026929;28;94974;-77
2022/05/02 07:47:57;;;;;;;10.10;9.02;;;;;;;;;;5016116;28;94139;-77
2022/05/02 07:50:25;;;;;;;11.73;9.05;;;;;;;;;;5028281;28;92479;-77
2022/05/02 07:52:51;;;;;;;12.60;9.20;;;;;;;;;;5035159;28;93030;-77
2022/05/02 07:55:21;;;;;;;13.27;8.90;;;;;;;;;;5035582;28;93460;-77
2022/05/02 07:57:48;;;;;;;11.88;9.45;;;;;;;;;;5035860;28;92601;-77
2022/05/02 08:00:16;;;;;;;10.38;9.38;;;;;;;;;;5034181;28;92985;-77
2022/05/02 08:02:43;;;;;;;10.00;9.10;;;;;;;;;;5025005;28;93399;-77
2022/05/02 08:05:09;;;;;;;9.82;8.80;;;;;;;;;;5015782;28;93398;-77
2022/05/02 08:07:41;;;;;;;17.27;9.20;;;;;;;;;;5014789;28;94258;-77
2022/05/02 08:10:28;;;;;;;9.85;8.85;;;;;;;;;;5015041;28;94877;-77
2022/05/02 08:12:55;;;;;;;7.68;7.18;;;;;;;;;;5015356;28;95667;-77
2022/05/02 08:15:40;;;;;;;8.40;7.60;;;;;;;;;;5014944;28;93072;-76
2022/05/02 08:18:15;;;;;;;9.30;8.18;;;;;;;;;;5016079;28;92562;-76
2022/05/02 08:20:55;;;;;;;9.35;7.75;;;;;;;;;;5013623;28;92783;-76
2022/05/02 08:29:30;;;;;;;9.25;8.43;;;;;;;;;;5055299;27;94008;-76
2022/05/02 08:32:07;;;;;;;9.63;8.65;;;;;;;;;;5041228;27;92484;-76
2022/05/02 08:34:43;;;;;;;10.85;7.75;;;;;;;;;;5015510;28;93114;-77
2022/05/02 08:37:19;;;;;;;10.95;7.88;;;;;;;;;;5031009;28;96130;-76
2022/05/02 08:39:51;;;;;;;9.15;8.25;;;;;;;;;;5035082;28;93085;-76
2022/05/02 08:42:44;;;;;;;12.07;8.10;;;;;;;;;;5034491;28;94341;-76
2022/05/02 08:45:33;;;;;;;;;;;;;;;;;;4995727;28;94488;-76
2022/05/02 08:48:09;;;;;;;8.20;7.43;;;;;;;;;;5018478;28;118624;-75
2022/05/02 08:50:50;;;;;;;8.98;7.50;;;;;;;;;;5013790;28;94459;-75
2022/05/02 08:53:38;;;;;;;9.32;8.23;;;;;;;;;;5014921;28;92507;-76
2022/05/02 08:56:10;;;;;;;9.13;8.20;;;;;;;;;;5014366;28;93218;-76
2022/05/02 08:58:49;;;;;;;11.52;8.73;;;;;;;;;;5014354;28;94311;-76
2022/05/02 09:01:24;;;;;;;15.20;7.18;;;;;;;;;;5014617;28;92533;-76
2022/05/02 09:04:22;;;;;;;7.22;6.18;;;;;;;;;;5012466;28;95390;-75
2022/05/02 09:07:07;;;;;;;11.63;6.40;;;;;;;;;;4972435;28;94401;-75
2022/05/02 09:09:52;;;;;;;8.20;7.40;;;;;;;;;;5013632;28;92500;-76
2022/05/02 09:12:28;;;;;;;8.02;7.32;;;;;;;;;;5033766;27;93954;-76
2022/05/02 09:15:00;;;;;;;8.27;7.53;;;;;;;;;;5034699;28;92607;-76
2022/05/02 09:17:37;;;;;;;7.03;6.43;;;;;;;;;;5033254;28;92834;-76
2022/05/02 09:20:22;;;;;;;7.15;6.10;;;;;;;;;;5033853;28;94204;-75
2022/05/02 09:22:48;;;;;;;6.60;6.15;;;;;;;;;;5031636;27;91805;-75
2022/05/02 09:25:29;;;;;;;7.03;5.97;;;;;;;;;;5013020;28;93422;-76
2022/05/02 09:28:19;;;;;;;7.32;5.97;;;;;;;;;;5013965;28;93073;-76
2022/05/02 09:31:04;;;;;;;9.02;5.80;;;;;;;;;;5011709;28;95166;-76
2022/05/02 09:33:35;;;;;;;7.30;6.55;;;;;;;;;;5012689;28;96848;-76
2022/05/02 09:36:20;;;;;;;8.90;6.15;;;;;;;;;;5026617;28;94151;-76
2022/05/02 09:39:04;;;;;;;6.25;5.75;;;;;;;;;;5026439;28;93291;-76
2022/05/02 09:41:33;;;;;;;5.90;5.40;;;;;;;;;;5014037;28;94290;-76
2022/05/02 09:50:02;;;;;;;6.63;5.90;;;;;;;;;;5034045;28;92571;-79
2022/05/02 09:52:34;;;;;;;7.13;5.55;;;;;;;;;;5033226;28;92469;-75
2022/05/02 09:57:57;;;;;;;5.50;4.95;;;;;;;;;;5026733;28;126100;-77
2022/05/02 10:03:33;;;;;;;8.90;5.90;;;;;;;;;;5033610;28;93835;-76
2022/05/02 10:06:10;;;;;;;9.27;5.47;;;;;;;;;;5023964;28;92571;-77
2022/05/02 10:08:55;;;;;;;6.70;5.40;;;;;;;;;;5013590;28;93962;-76
2022/05/02 10:11:32;;;;;;;7.85;5.35;;;;;;;;;;5013380;28;94222;-76
2022/05/02 10:14:16;;;;;;;6.05;5.55;;;;;;;;;;5012523;28;92483;-76
2022/05/02 10:16:50;;;;;;;5.85;5.35;;;;;;;;;;5013527;28;92959;-76
2022/05/02 10:19:29;;;;;;;6.38;4.97;;;;;;;;;;5013474;28;93986;-77
2022/05/02 10:22:24;;;;;;;5.85;5.20;;;;;;;;;;5012031;28;92501;-76
2022/05/02 10:25:11;;;;;;;8.23;5.13;;;;;;;;;;5001540;28;95917;-76
2022/05/02 10:27:56;;;;;;;5.30;4.80;;;;;;;;;;5012278;28;92518;-76
2022/05/02 10:30:27;;;;;;;5.25;4.63;;;;;;;;;;5013259;28;92830;-78
2022/05/02 10:32:56;;;;;;;5.50;5.10;;;;;;;;;;5012907;28;93665;-77
2022/05/02 10:35:24;;;;;;;6.13;5.07;;;;;;;;;;5012918;28;93809;-77
2022/05/02 10:37:55;;;;;;;9.25;4.60;;;;;;;;;;5013640;28;94221;-77
2022/05/02 10:40:26;;;;;;;5.03;4.63;;;;;;;;;;5013082;28;93558;-77
2022/05/02 10:42:55;;;;;;;4.68;4.38;;;;;;;;;;5013042;28;92132;-77
2022/05/02 10:45:24;;;;;;;4.75;4.20;;;;;;;;;;5016302;28;93149;-76
2022/05/02 10:47:51;;;;;;;5.53;4.55;;;;;;;;;;5019684;28;94103;-76
2022/05/02 10:50:22;;;;;;;5.15;4.28;;;;;;;;;;5014781;28;94905;-77
2022/05/02 10:52:54;;;;;;;4.93;4.15;;;;;;;;;;5016564;28;94046;-77
2022/05/02 10:55:30;;;;;;;7.38;4.57;;;;;;;;;;5015806;28;92524;-78
2022/05/02 10:58:04;;;;;;;5.30;3.97;;;;;;;;;;5016546;28;93298;-77
2022/05/02 11:00:30;;;;;;;3.80;3.50;;;;;;;;;;5015687;28;93572;-77
2022/05/02 11:03:15;;;;;;;4.78;3.72;;;;;;;;;;5015490;28;92795;-76
2022/05/02 11:05:42;;;;;;;6.03;4.05;;;;;;;;;;5021550;28;93469;-77
2022/05/02 11:08:12;;;;;;;4.70;4.30;;;;;;;;;;5021080;28;92400;-76
2022/05/02 11:10:42;;;;;;;4.63;4.05;;;;;;;;;;5015741;28;93029;-76
2022/05/02 11:13:20;;;;;;;6.22;4.72;;;;;;;;;;5016280;28;94606;-76
2022/05/02 11:16:05;;;;;;;5.25;4.55;;;;;;;;;;5014441;28;94950;-78
2022/05/02 11:21:28;;;;;;;4.70;4.30;;;;;;;;;;5015431;28;94176;-76
2022/05/02 11:24:05;;;;;;;4.82;4.43;;;;;;;;;;5014564;28;92593;-76
2022/05/02 11:26:43;;;;;;;5.40;4.22;;;;;;;;;;5015144;28;94248;-76
2022/05/02 11:29:15;;;;;;;6.07;4.25;;;;;;;;;;5016257;28;94095;-76
2022/05/02 11:32:02;;;;;;;4.80;4.50;;;;;;;;;;5018328;28;92592;-76
2022/05/02 11:34:47;;;;;;;5.28;4.78;;;;;;;;;;5016243;28;93561;-76
2022/05/02 11:37:35;;;;;;;5.10;4.72;;;;;;;;;;5015321;28;92454;-76
2022/05/02 11:40:09;;;;;;;13.80;5.15;;;;;;;;;;5016291;28;93153;-78
2022/05/02 11:42:38;;;;;;;12.98;4.85;;;;;;;;;;5013879;28;96825;-78
2022/05/02 11:45:14;;;;;;;9.90;4.72;;;;;;;;;;5015152;28;92443;-77
2022/05/02 11:47:58;;;;;;;4.80;4.40;;;;;;;;;;5015807;28;93887;-80
2022/05/02 11:50:26;;;;;;;6.85;4.30;;;;;;;;;;5015755;28;94369;-77
2022/05/02 11:52:54;;;;;;;4.88;4.55;;;;;;;;;;5027380;28;92518;-77
2022/05/02 11:55:27;;;;;;;4.45;4.05;;;;;;;;;;5037849;27;93936;-77
2022/05/02 11:57:55;;;;;;;4.95;4.55;;;;;;;;;;5020949;28;92430;-77
2022/05/02 12:00:29;;;;;;;6.45;4.65;;;;;;;;;;5015399;28;94094;-77
2022/05/02 12:03:16;;;;;;;6.28;4.40;;;;;;;;;;5014957;28;93205;-77
2022/05/02 12:05:43;;;;;;;5.82;5.35;;;;;;;;;;5024931;28;92494;-78
2022/05/02 12:08:20;;;;;;;6.85;5.50;;;;;;;;;;5034170;28;94933;-78
2022/05/02 12:10:47;;;;;;;6.22;5.55;;;;;;;;;;5030632;28;93053;-78
2022/05/02 12:13:15;;;;;;;7.53;5.72;;;;;;;;;;5025639;28;94003;-78
2022/05/02 12:15:58;;;;;;;7.45;5.28;;;;;;;;;;5015405;28;94348;-78
2022/05/02 12:18:57;;;;;;;8.27;5.05;;;;;;;;;;5034874;28;94031;-78
2022/05/02 12:21:31;;;;;;;9.80;5.80;;;;;;;;;;4980503;28;93960;-78
2022/05/02 12:23:59;;;;;;;6.10;5.63;;;;;;;;;;5002343;28;94508;-78
2022/05/02 12:26:26;;;;;;;6.40;5.22;;;;;;;;;;4994882;28;92254;-77
2022/05/02 12:28:55;;;;;;;9.55;6.05;;;;;;;;;;4995284;28;93264;-78
2022/05/02 12:31:29;;;;;;;6.13;5.35;;;;;;;;;;4994964;28;94270;-77
2022/05/02 12:34:02;;;;;;;6.68;5.68;;;;;;;;;;4993052;28;95322;-77
2022/05/02 12:36:34;;;;;;;7.25;5.28;;;;;;;;;;5009144;28;95296;-77
2022/05/02 12:39:09;;;;;;;6.30;5.38;;;;;;;;;;5014699;28;93425;-77
2022/05/02 12:41:44;;;;;;;6.38;5.78;;;;;;;;;;5017264;28;92498;-77
2022/05/02 12:44:12;;;;;;;7.68;5.47;;;;;;;;;;5015036;28;94375;-77
2022/05/02 12:46:40;;;;;;;5.88;5.35;;;;;;;;;;5014732;28;92442;-77
2022/05/02 12:49:11;;;;;;;6.10;5.50;;;;;;;;;;5013585;28;93301;-77
2022/05/02 12:51:37;;;;;;;6.05;5.47;;;;;;;;;;5014669;28;92867;-77
2022/05/02 12:54:14;;;;;;;7.10;6.40;;;;;;;;;;5014763;28;92615;-77
2022/05/02 13:00:30;;;;;;;7.10;6.40;;;;;;;;;;5014091;28;94206;-76
2022/05/02 13:02:29;;;;;;;11.32;6.80;;;;;;;;;;5013957;28;92604;-77
2022/05/02 13:04:56;;;;;;;9.43;7.60;;;;;;;;;;5011198;28;93964;-77
2022/05/02 13:07:25;;;;;;;7.72;7.03;;;;;;;;;;4994640;28;92534;-78
2022/05/02 13:09:52;;;;;;;6.50;5.97;;;;;;;;;;4993796;28;93920;-77
2022/05/02 13:12:22;;;;;;;7.72;6.78;;;;;;;;;;4994342;28;93409;-78
2022/05/02 13:14:49;;;;;;;8.40;7.60;;;;;;;;;;4994503;28;92544;-77
2022/05/02 13:17:16;;;;;;;7.57;6.88;;;;;;;;;;4994194;28;93871;-77
2022/05/02 13:19:43;;;;;;;16.08;6.80;;;;;;;;;;4993828;28;93360;-78
2022/05/02 13:22:10;;;;;;;8.77;6.47;;;;;;;;;;5013784;28;92838;-77
2022/05/02 13:24:49;;;;;;;7.53;6.82;;;;;;;;;;5014562;28;95384;-78
2022/05/02 13:27:22;;;;;;;8.75;6.18;;;;;;;;;;5012898;28;92564;-77
2022/05/02 13:30:03;;;;;;;12.00;6.47;;;;;;;;;;5013696;28;93995;-77
2022/05/02 13:32:37;;;;;;;7.50;6.93;;;;;;;;;;5014039;28;93032;-77
2022/05/02 13:35:11;;;;;;;10.85;6.05;;;;;;;;;;5019998;28;92599;-77
2022/05/02 13:37:37;;;;;;;13.13;7.18;;;;;;;;;;5030033;28;93923;-77
2022/05/02 13:40:11;;;;;;;10.85;7.35;;;;;;;;;;5013931;28;94738;-77
2022/05/02 13:42:49;;;;;;;6.57;6.00;;;;;;;;;;5015155;28;91924;-78
2022/05/02 13:45:32;;;;;;;7.03;6.43;;;;;;;;;;5014523;28;93112;-77
2022/05/02 13:48:11;;;;;;;6.80;6.07;;;;;;;;;;5018065;28;94172;-78
2022/05/02 13:50:44;;;;;;;7.20;6.50;;;;;;;;;;5013990;28;94882;-78
2022/05/02 13:53:10;;;;;;;6.15;5.65;;;;;;;;;;5026910;27;94261;-79
2022/05/02 13:56:15;;;;;;;7.97;6.40;;;;;;;;;;5026872;27;92537;-78
2022/05/02 13:58:59;;;;;;;6.75;6.15;;;;;;;;;;5027096;28;93371;-78
2022/05/02 14:01:49;;;;;;;7.10;6.55;;;;;;;;;;5025514;28;94088;-78
2022/05/02 14:04:37;;;;;;;7.22;6.45;;;;;;;;;;5006751;27;92975;-78
2022/05/02 14:07:14;;;;;;;14.63;7.13;;;;;;;;;;5012350;28;94442;-78
2022/05/02 14:09:44;;;;;;;13.18;6.70;;;;;;;;;;5013602;28;93670;-78
2022/05/02 14:12:18;;;;;;;10.00;6.13;;;;;;;;;;5027541;28;93489;-78
2022/05/02 14:14:57;;;;;;;10.05;6.85;;;;;;;;;;5037486;27;93264;-78
2022/05/02 14:17:41;;;;;;;6.50;6.00;;;;;;;;;;5025304;27;95761;-78
2022/05/02 14:20:22;;;;;;;6.35;5.75;;;;;;;;;;5052124;27;95402;-78
2022/05/02 14:22:57;;;;;;;9.35;6.00;;;;;;;;;;5048067;27;93352;-78
2022/05/02 14:25:29;;;;;;;8.70;6.32;;;;;;;;;;5027568;27;92575;-77
2022/05/02 14:28:17;;;;;;;6.80;6.20;;;;;;;;;;5013187;27;94086;-79
2022/05/02 14:30:45;;;;;;;6.80;5.07;;;;;;;;;;5014058;28;94394;-79
2022/05/02 14:33:13;;;;;;;6.00;5.60;;;;;;;;;;5014064;28;92570;-79
2022/05/02 14:35:41;;;;;;;6.20;5.60;;;;;;;;;;5015270;28;94288;-78
2022/05/02 14:38:08;;;;;;;10.82;5.78;;;;;;;;;;5015956;28;92489;-78
2022/05/02 14:40:39;;;;;;;8.38;5.72;;;;;;;;;;5011018;28;94337;-78
2022/05/02 14:43:09;;;;;;;7.80;6.07;;;;;;;;;;5013733;28;97592;-78
2022/05/02 14:45:36;;;;;;;6.15;5.57;;;;;;;;;;5019830;28;93738;-78
2022/05/02 14:48:06;;;;;;;10.05;6.18;;;;;;;;;;5013202;28;93973;-78
2022/05/02 14:50:32;;;;;;;6.97;5.80;;;;;;;;;;5013614;28;94216;-79
2022/05/02 14:53:04;;;;;;;6.00;5.50;;;;;;;;;;5023766;27;92502;-78
2022/05/02 14:55:30;;;;;;;7.45;5.45;;;;;;;;;;5024758;28;94227;-78
2022/05/02 14:57:57;;;;;;;5.70;5.20;;;;;;;;;;5025022;28;94425;-79
2022/05/02 15:00:24;;;;;;;9.07;5.78;;;;;;;;;;5014128;28;91795;-78
2022/05/02 15:02:53;;;;;;;5.13;4.72;;;;;;;;;;5012019;28;94654;-77
2022/05/02 15:05:21;;;;;;;4.95;4.55;;;;;;;;;;5020300;28;92516;-77
2022/05/02 15:07:58;;;;;;;5.85;5.20;;;;;;;;;;5016999;28;94911;-77
2022/05/02 15:10:38;;;;;;;9.05;5.85;;;;;;;;;;5018437;28;94675;-79
2022/05/02 15:13:14;;;;;;;5.88;5.35;;;;;;;;;;5031274;27;92540;-78
2022/05/02 15:15:47;;;;;;;7.40;5.38;;;;;;;;;;5019773;28;94681;-78
2022/05/02 15:18:18;;;;;;;5.47;5.05;;;;;;;;;;5024316;28;95088;-78
2022/05/02 15:20:47;;;;;;;8.10;5.55;;;;;;;;;;5030924;27;92574;-78
2022/05/02 15:23:14;;;;;;;10.13;5.80;;;;;;;;;;5026131;27;93356;-78
2022/05/02 15:25:48;;;;;;;5.88;5.45;;;;;;;;;;5013614;28;92672;-78
2022/05/02 15:36:46;;;;;;;8.20;6.38;;;;;;;;;;5027829;27;97608;-76
2022/05/02 15:39:13;;;;;;;6.97;6.03;;;;;;;;;;5016564;28;94112;-77
2022/05/02 15:41:39;;;;;;;6.50;6.00;;;;;;;;;;5020088;27;92545;-77
2022/05/02 15:44:18;;;;;;;7.32;6.57;;;;;;;;;;5018951;28;94117;-78